createdAt,value
2018-06-05T00:00:33.967Z,19.97
2018-06-05T00:03:03.539Z,19.13
2018-06-05T00:05:33.036Z,17.93
2018-06-05T00:08:02.541Z,20.70
2018-06-05T00:10:31.557Z,19.67
2018-06-05T00:13:01.067Z,18.60
2018-06-05T00:15:30.584Z,17.47
2018-06-05T00:18:00.166Z,19.47
2018-06-05T00:20:29.755Z,18.80
2018-06-05T00:22:58.681Z,17.10
2018-06-05T00:25:28.173Z,16.80
2018-06-05T00:27:57.713Z,17.93
2018-06-05T00:30:27.883Z,19.33
2018-06-05T00:32:56.854Z,18.43
2018-06-05T00:35:25.898Z,19.17
2018-06-05T00:37:55.457Z,18.60
2018-06-05T00:40:24.374Z,19.80
2018-06-05T00:42:53.863Z,20.20
2018-06-05T00:45:22.904Z,20.90
2018-06-05T00:47:52.602Z,21.13
2018-06-05T00:50:22.088Z,22.13
2018-06-05T00:52:51.662Z,21.47
2018-06-05T00:55:21.202Z,21.70
2018-06-05T00:57:50.734Z,22.83
2018-06-05T01:00:20.308Z,22.97
2018-06-05T01:02:49.820Z,21.80
2018-06-05T01:05:19.349Z,24.37
2018-06-05T01:07:48.857Z,24.23
2018-06-05T01:10:18.407Z,23.03
2018-06-05T01:12:47.382Z,24.20
2018-06-05T01:15:16.938Z,22.70
2018-06-05T01:17:46.524Z,23.87
2018-06-05T01:20:16.006Z,23.20
2018-06-05T01:22:45.566Z,23.57
2018-06-05T01:25:15.067Z,25.67
2018-06-05T01:27:45.145Z,22.63
2018-06-05T01:30:14.080Z,23.93
2018-06-05T01:32:43.586Z,24.13
2018-06-05T01:35:13.118Z,22.03
2018-06-05T01:37:42.882Z,20.87
2018-06-05T01:40:12.389Z,22.23
2018-06-05T01:42:41.935Z,22.63
2018-06-05T01:45:11.459Z,21.00
2018-06-05T01:47:41.626Z,22.90
2018-06-05T01:50:11.122Z,20.20
2018-06-05T01:52:40.622Z,19.80
2018-06-05T01:55:10.151Z,22.70
2018-06-05T01:57:39.635Z,20.97
2018-06-05T02:00:09.306Z,19.10
2018-06-05T02:02:38.225Z,22.23
2018-06-05T02:05:07.714Z,19.77
2018-06-05T02:07:36.761Z,19.57
2018-06-05T02:10:06.322Z,19.57
2018-06-05T02:12:35.854Z,19.30
2018-06-05T02:15:05.535Z,20.60
2018-06-05T02:17:35.346Z,20.97
2018-06-05T02:20:04.916Z,21.60
2018-06-05T02:22:34.915Z,21.50
2018-06-05T02:25:04.467Z,19.63
2018-06-05T02:27:34.474Z,20.33
2018-06-05T02:30:03.426Z,20.77
2018-06-05T02:32:32.921Z,20.63
2018-06-05T02:35:02.508Z,20.70
2018-06-05T02:37:32.017Z,23.27
2018-06-05T02:40:01.497Z,21.47
2018-06-05T02:42:31.066Z,21.30
2018-06-05T02:45:00.583Z,21.73
2018-06-05T02:47:29.731Z,23.40
2018-06-05T02:49:59.294Z,23.80
2018-06-05T02:52:28.229Z,23.30
2018-06-05T02:54:57.766Z,23.13
2018-06-05T02:57:27.304Z,21.90
2018-06-05T02:59:56.837Z,18.80
2018-06-05T03:02:26.373Z,20.67
2018-06-05T03:09:04.891Z,21.00
2018-06-05T03:11:35.090Z,20.97
2018-06-05T03:14:15.178Z,21.90
2018-06-05T03:16:45.710Z,20.50
2018-06-05T03:19:15.445Z,21.30
2018-06-05T03:21:45.354Z,21.00
2018-06-05T03:24:42.879Z,19.60
2018-06-05T03:27:16.110Z,19.40
2018-06-05T03:29:45.617Z,20.23
2018-06-05T03:32:15.062Z,19.07
2018-06-05T03:34:44.461Z,19.13
2018-06-05T03:37:14.086Z,18.87
2018-06-05T03:39:43.535Z,18.13
2018-06-05T03:42:12.962Z,17.93
2018-06-05T03:44:41.865Z,17.40
2018-06-05T03:47:11.277Z,16.70
2018-06-05T03:49:41.719Z,14.60
2018-06-05T03:52:11.695Z,16.47
2018-06-05T03:54:41.136Z,16.10
2018-06-05T03:57:10.631Z,16.87
2018-06-05T03:59:40.178Z,15.70
2018-06-05T04:02:09.598Z,16.60
2018-06-05T04:04:39.076Z,15.70
2018-06-05T04:07:09.005Z,15.23
2018-06-05T04:09:40.461Z,14.97
2018-06-05T04:12:09.410Z,14.87
2018-06-05T04:14:38.823Z,15.07
2018-06-05T04:17:08.278Z,14.93
2018-06-05T04:19:37.217Z,16.27
2018-06-05T04:22:06.652Z,16.43
2018-06-05T04:24:36.109Z,15.40
2018-06-05T04:27:06.528Z,16.70
2018-06-05T04:29:35.449Z,16.57
2018-06-05T04:32:04.913Z,15.93
2018-06-05T04:34:34.321Z,16.27
2018-06-05T04:37:04.014Z,14.70
2018-06-05T04:39:32.888Z,15.87
2018-06-05T04:42:02.300Z,16.47
2018-06-05T04:44:32.120Z,15.77
2018-06-05T04:47:01.024Z,14.00
2018-06-05T04:49:30.225Z,13.90
2018-06-05T04:51:59.149Z,15.20
2018-06-05T04:54:28.609Z,13.43
2018-06-05T04:56:57.522Z,13.00
2018-06-05T04:59:27.398Z,13.93
2018-06-05T05:01:56.801Z,15.10
2018-06-05T05:04:42.284Z,13.27
2018-06-05T05:07:11.774Z,15.80
2018-06-05T05:09:41.234Z,15.93
2018-06-05T05:12:10.626Z,15.37
2018-06-05T05:14:39.550Z,15.73
2018-06-05T05:17:08.960Z,15.57
2018-06-05T05:19:39.670Z,16.77
2018-06-05T05:22:09.083Z,13.53
2018-06-05T05:24:38.741Z,14.23
2018-06-05T05:27:08.206Z,15.63
2018-06-05T05:29:37.594Z,15.37
2018-06-05T05:32:07.068Z,14.70
2018-06-05T05:34:35.940Z,15.40
2018-06-05T05:37:05.507Z,16.03
2018-06-05T05:39:34.965Z,15.23
2018-06-05T05:42:03.866Z,13.70
2018-06-05T05:44:32.811Z,15.40
2018-06-05T05:47:02.281Z,16.03
2018-06-05T05:49:32.467Z,15.27
2018-06-05T05:52:01.903Z,15.17
2018-06-05T05:54:31.685Z,14.03
2018-06-05T05:57:01.272Z,14.90
2018-06-05T05:59:31.159Z,15.00
2018-06-05T06:02:00.622Z,15.63
2018-06-05T06:04:30.376Z,15.37
2018-06-05T06:06:59.970Z,15.10
2018-06-05T06:09:29.674Z,15.50
2018-06-05T06:11:59.150Z,13.70
2018-06-05T06:14:28.615Z,14.30
2018-06-05T06:16:58.023Z,14.03
2018-06-05T06:19:27.522Z,15.20
2018-06-05T06:21:56.925Z,15.07
2018-06-05T06:24:27.121Z,13.33
2018-06-05T06:26:56.627Z,14.87
2018-06-05T06:29:26.105Z,14.10
2018-06-05T06:31:54.973Z,14.50
2018-06-05T06:34:24.360Z,13.07
2018-06-05T06:36:53.801Z,13.33
2018-06-05T06:39:22.667Z,13.40
2018-06-05T06:41:52.136Z,11.33
2018-06-05T06:44:21.536Z,13.57
2018-06-05T06:46:50.952Z,13.80
2018-06-05T06:49:20.394Z,12.93
2018-06-05T06:51:49.854Z,12.27
2018-06-05T06:54:19.305Z,12.90
2018-06-05T06:56:48.851Z,14.33
2018-06-05T06:59:18.252Z,12.33
2018-06-05T07:01:47.703Z,13.43
2018-06-05T07:04:17.180Z,11.63
2018-06-05T07:06:46.591Z,11.67
2018-06-05T07:09:16.179Z,11.27
2018-06-05T07:11:45.606Z,11.70
2018-06-05T07:14:15.070Z,11.73
2018-06-05T07:16:44.627Z,10.80
2018-06-05T07:19:14.124Z,10.30
2018-06-05T07:21:43.572Z,8.57
2018-06-05T07:24:12.486Z,8.33
2018-06-05T07:26:41.877Z,8.67
2018-06-05T07:29:10.801Z,8.73
2018-06-05T07:31:40.198Z,8.07
2018-06-05T07:34:09.736Z,7.50
2018-06-05T07:36:39.126Z,7.93
2018-06-05T07:39:09.443Z,7.60
2018-06-05T07:41:39.398Z,7.50
2018-06-05T07:44:08.836Z,7.77
2018-06-05T07:46:38.260Z,8.77
2018-06-05T07:49:07.706Z,7.07
2018-06-05T07:51:37.176Z,8.70
2018-06-05T07:54:06.822Z,8.13
2018-06-05T07:56:36.220Z,7.50
2018-06-05T07:59:05.683Z,9.00
2018-06-05T08:01:35.146Z,6.90
2018-06-05T08:04:04.053Z,6.97
2018-06-05T08:06:33.321Z,6.40
2018-06-05T08:09:25.355Z,7.20
2018-06-05T08:11:55.256Z,6.23
2018-06-05T08:14:24.767Z,6.43
2018-06-05T08:16:54.246Z,7.47
2018-06-05T08:19:23.690Z,6.50
2018-06-05T08:21:53.467Z,5.70
2018-06-05T08:24:22.883Z,6.50
2018-06-05T08:26:53.925Z,4.93
2018-06-05T08:29:23.519Z,6.33
2018-06-05T08:31:52.925Z,6.83
2018-06-05T08:34:22.310Z,7.60
2018-06-05T08:36:51.777Z,7.60
2018-06-05T08:39:20.636Z,7.63
2018-06-05T08:41:50.087Z,8.00
2018-06-05T08:44:19.536Z,7.80
2018-06-05T08:46:48.972Z,7.60
2018-06-05T08:49:18.412Z,7.70
2018-06-05T08:51:47.840Z,7.40
2018-06-05T08:54:17.435Z,6.13
2018-06-05T08:56:46.850Z,5.60
2018-06-05T08:59:16.517Z,5.73
2018-06-05T09:01:45.428Z,6.40
2018-06-05T09:04:14.886Z,6.30
2018-06-05T09:06:44.367Z,6.63
2018-06-05T09:09:13.849Z,7.10
2018-06-05T09:11:43.335Z,6.30
2018-06-05T09:14:12.736Z,6.77
2018-06-05T09:16:42.265Z,6.47
2018-06-05T09:19:11.651Z,7.10
2018-06-05T09:21:41.058Z,6.47
2018-06-05T09:24:10.589Z,6.10
2018-06-05T09:26:40.001Z,7.07
2018-06-05T09:29:09.425Z,6.63
2018-06-05T09:31:38.877Z,6.20
2018-06-05T09:34:08.296Z,7.07
2018-06-05T09:36:37.733Z,6.60
2018-06-05T09:39:09.274Z,6.17
2018-06-05T09:41:38.761Z,5.60
2018-06-05T09:44:08.235Z,5.63
2018-06-05T09:46:37.084Z,6.30
2018-06-05T09:49:06.550Z,6.00
2018-06-05T09:51:36.100Z,7.43
2018-06-05T09:54:05.541Z,6.63
2018-06-05T09:56:34.397Z,7.10
2018-06-05T09:59:03.900Z,6.77
2018-06-05T10:01:33.309Z,7.33
2018-06-05T10:04:02.758Z,6.70
2018-06-05T10:06:32.182Z,6.10
2018-06-05T10:09:01.616Z,7.00
2018-06-05T10:11:31.096Z,7.00
2018-06-05T10:14:00.510Z,6.97
2018-06-05T10:16:29.951Z,6.70
2018-06-05T10:18:59.344Z,6.60
2018-06-05T10:21:29.148Z,7.03
2018-06-05T10:23:58.583Z,7.03
2018-06-05T10:26:28.003Z,6.40
2018-06-05T10:28:57.510Z,7.20
2018-06-05T10:31:26.909Z,5.60
2018-06-05T10:33:56.372Z,6.23
2018-06-05T10:36:25.784Z,6.97
2018-06-05T10:38:55.179Z,5.90
2018-06-05T10:41:24.617Z,6.60
2018-06-05T10:43:54.017Z,6.33
2018-06-05T10:46:23.569Z,6.60
2018-06-05T10:48:52.969Z,6.70
2018-06-05T10:51:22.386Z,5.43
2018-06-05T10:53:51.922Z,6.23
2018-06-05T10:56:21.340Z,6.97
2018-06-05T10:58:50.211Z,6.93
2018-06-05T11:01:19.678Z,6.63
2018-06-05T11:03:49.086Z,6.27
2018-06-05T11:06:26.317Z,6.70
2018-06-05T11:08:55.890Z,6.50
2018-06-05T11:11:42.160Z,7.20
2018-06-05T11:14:28.134Z,6.37
2018-06-05T11:17:11.305Z,6.47
2018-06-05T11:19:43.531Z,7.10
2018-06-05T11:22:27.774Z,7.93
2018-06-05T11:25:02.904Z,7.10
2018-06-05T11:27:31.801Z,5.90
2018-06-05T11:30:00.664Z,6.40
2018-06-05T11:32:30.118Z,6.10
2018-06-05T11:34:59.513Z,6.70
2018-06-05T11:37:29.381Z,7.03
2018-06-05T11:39:58.773Z,6.50
2018-06-05T11:42:28.203Z,7.27
2018-06-05T11:44:57.659Z,6.70
2018-06-05T11:47:27.065Z,7.70
2018-06-05T11:49:56.610Z,7.37
2018-06-05T11:52:26.058Z,7.30
2018-06-05T11:54:55.771Z,7.13
2018-06-05T11:57:25.244Z,6.50
2018-06-05T11:59:55.848Z,7.03
2018-06-05T12:02:25.441Z,7.30
2018-06-05T12:04:55.139Z,7.67
2018-06-05T12:07:24.993Z,8.13
2018-06-05T12:09:54.408Z,6.73
2018-06-05T12:12:23.837Z,7.57
2018-06-05T12:14:53.305Z,9.00
2018-06-05T12:17:22.710Z,7.17
2018-06-05T12:19:52.285Z,7.93
2018-06-05T12:22:21.982Z,7.03
2018-06-05T12:24:51.441Z,9.33
2018-06-05T12:27:20.278Z,8.50
2018-06-05T12:29:49.763Z,10.23
2018-06-05T12:32:19.758Z,9.87
2018-06-05T12:34:48.647Z,9.37
2018-06-05T12:37:17.930Z,9.37
2018-06-05T12:39:47.342Z,9.73
2018-06-05T12:42:16.198Z,9.53
2018-06-05T12:44:45.731Z,8.10
2018-06-05T12:47:15.151Z,11.03
2018-06-05T12:49:44.009Z,8.70
2018-06-05T12:52:13.538Z,7.50
2018-06-05T12:54:42.975Z,9.00
2018-06-05T12:57:12.389Z,8.50
2018-06-05T12:59:41.817Z,8.30
2018-06-05T13:02:11.232Z,9.50
2018-06-05T13:04:40.686Z,9.57
2018-06-05T13:07:10.129Z,10.80
2018-06-05T13:09:39.592Z,9.90
2018-06-05T13:12:09.476Z,9.70
2018-06-05T13:14:41.108Z,10.50
2018-06-05T13:17:11.905Z,11.20
2018-06-05T13:19:41.311Z,10.13
2018-06-05T13:22:10.772Z,10.40
2018-06-05T13:24:40.195Z,9.30
2018-06-05T13:27:09.611Z,10.20
2018-06-05T13:29:40.338Z,10.10
2018-06-05T13:32:09.272Z,8.73
2018-06-05T13:34:38.720Z,8.33
2018-06-05T13:37:08.218Z,8.97
2018-06-05T13:39:37.631Z,10.77
2018-06-05T13:42:06.473Z,11.87
2018-06-05T13:44:36.745Z,10.07
2018-06-05T13:47:05.637Z,10.40
2018-06-05T13:49:35.848Z,10.10
2018-06-05T13:52:05.277Z,9.87
2018-06-05T13:54:35.157Z,10.60
2018-06-05T13:57:04.680Z,10.40
2018-06-05T13:59:34.045Z,9.83
2018-06-05T14:02:03.459Z,9.93
2018-06-05T14:04:48.339Z,8.90
2018-06-05T14:07:30.325Z,9.77
2018-06-05T14:10:00.841Z,10.17
2018-06-05T14:12:34.491Z,9.20
2018-06-05T14:15:03.873Z,8.90
2018-06-05T14:17:33.300Z,9.83
2018-06-05T14:20:02.734Z,9.07
2018-06-05T14:22:32.435Z,10.77
2018-06-05T14:25:01.914Z,9.60
2018-06-05T14:27:31.562Z,9.60
2018-06-05T14:30:01.011Z,10.70
2018-06-05T14:33:01.553Z,9.53
2018-06-05T14:35:30.976Z,9.83
2018-06-05T14:38:00.441Z,9.70
2018-06-05T14:40:37.008Z,10.80
2018-06-05T14:43:06.749Z,9.33
2018-06-05T14:45:37.023Z,9.13
2018-06-05T14:48:06.555Z,9.37
2018-06-05T14:50:35.657Z,10.23
2018-06-05T14:53:05.110Z,12.30
2018-06-05T14:55:34.632Z,9.80
2018-06-05T15:00:55.600Z,9.80
2018-06-05T15:03:46.906Z,8.70
2018-06-05T15:06:22.840Z,8.90
2018-06-05T15:08:58.706Z,8.87
2018-06-05T15:11:33.994Z,9.77
2018-06-05T15:14:10.303Z,9.73
2018-06-05T15:16:44.118Z,9.13
2018-06-05T15:19:13.374Z,9.03
2018-06-05T15:21:43.210Z,9.77
2018-06-05T15:24:13.405Z,9.20
2018-06-05T15:26:43.329Z,8.60
2018-06-05T15:29:13.171Z,9.23
2018-06-05T15:31:42.405Z,9.53
2018-06-05T15:34:12.289Z,10.03
2018-06-05T15:36:42.204Z,9.40
2018-06-05T15:39:12.058Z,9.70
2018-06-05T15:41:41.956Z,9.57
2018-06-05T15:44:13.077Z,9.70
2018-06-05T15:46:43.120Z,9.30
2018-06-05T15:49:13.612Z,10.57
2018-06-05T15:51:49.543Z,9.40
2018-06-05T15:54:34.683Z,9.70
2018-06-05T15:57:05.606Z,8.67
2018-06-05T15:59:41.098Z,8.87
2018-06-05T16:02:21.520Z,9.60
2018-06-05T16:04:51.572Z,9.27
2018-06-05T16:07:21.588Z,9.33
2018-06-05T16:09:51.393Z,9.00
2018-06-05T16:12:24.313Z,8.73
2018-06-05T16:14:56.163Z,11.00
2018-06-05T16:17:26.485Z,32.33
2018-06-05T16:19:57.615Z,17.40
2018-06-05T16:22:27.501Z,47.27
2018-06-05T16:25:00.744Z,44.13
2018-06-05T16:27:37.118Z,12.20
2018-06-05T16:30:10.850Z,26.00
2018-06-05T16:32:45.922Z,77.00
2018-06-05T16:35:16.473Z,10.00
2018-06-05T16:37:45.613Z,8.20
2018-06-05T16:40:16.683Z,15.80
2018-06-05T16:42:46.505Z,31.60
2018-06-05T16:45:16.530Z,9.03
2018-06-05T16:47:45.834Z,10.17
2018-06-05T16:50:15.775Z,8.80
2018-06-05T16:52:45.730Z,7.70
2018-06-05T16:55:15.654Z,7.53
2018-06-05T16:57:45.584Z,8.60
2018-06-05T17:00:14.731Z,7.60
2018-06-05T17:02:44.546Z,7.40
2018-06-05T17:05:14.559Z,7.53
2018-06-05T17:07:44.385Z,7.53
2018-06-05T17:10:14.261Z,7.70
2018-06-05T19:38:23.412Z,9.03
2018-06-05T19:40:52.944Z,9.13
2018-06-05T19:43:22.576Z,8.37
2018-06-05T19:45:52.283Z,9.40
2018-06-05T19:48:21.861Z,9.77
2018-06-05T19:50:51.394Z,9.50
2018-06-05T19:53:20.985Z,9.90
2018-06-05T19:55:50.625Z,10.00
2018-06-05T19:58:20.553Z,10.20
2018-06-05T20:00:49.708Z,10.77
2018-06-05T20:03:19.267Z,9.63
2018-06-05T20:05:48.962Z,10.40
2018-06-05T20:08:18.291Z,10.40
2018-06-05T20:10:47.839Z,10.40
2018-06-05T20:13:17.384Z,9.10
2018-06-05T20:15:55.064Z,12.17
2018-06-05T20:18:24.894Z,10.40
2018-06-05T20:20:57.476Z,10.07
2018-06-05T20:23:30.432Z,11.00
2018-06-05T20:26:37.611Z,12.70
2018-06-05T20:29:13.073Z,10.60
2018-06-05T20:31:42.674Z,10.97
2018-06-05T20:34:16.608Z,10.10
2018-06-05T20:36:51.441Z,11.23
2018-06-05T20:39:21.338Z,10.20
2018-06-05T20:41:53.603Z,11.97
2018-06-05T20:44:23.308Z,11.47
2018-06-05T20:46:52.877Z,12.13
2018-06-05T20:49:22.571Z,12.13
2018-06-05T20:51:52.178Z,10.50
2018-06-05T20:54:24.295Z,11.77
2018-06-05T20:56:54.014Z,11.67
2018-06-05T20:59:23.628Z,11.50
2018-06-05T21:01:53.205Z,11.77
2018-06-05T21:04:22.811Z,10.50
2018-06-05T21:06:52.342Z,10.50
2018-06-05T21:09:23.619Z,12.30
2018-06-05T21:11:53.205Z,11.83
2018-06-05T21:14:22.872Z,11.73
2018-06-05T21:16:52.682Z,11.23
2018-06-05T21:19:22.295Z,11.57
2018-06-05T21:21:53.127Z,12.30
2018-06-05T21:24:22.706Z,11.47
2018-06-05T21:26:52.373Z,12.57
2018-06-05T21:29:21.935Z,12.67
2018-06-05T21:31:51.587Z,12.00
2018-06-05T21:34:21.188Z,12.00
2018-06-05T21:36:50.831Z,11.70
2018-06-05T21:39:20.432Z,12.50
2018-06-05T21:41:50.519Z,11.57
2018-06-05T21:44:20.094Z,12.10
2018-06-05T21:46:49.703Z,12.83
2018-06-05T21:49:19.352Z,13.40
2018-06-05T21:51:48.906Z,14.13
2018-06-05T21:54:18.525Z,13.70
2018-06-05T21:56:48.114Z,12.03
2018-06-05T21:59:17.719Z,12.97
2018-06-05T22:01:47.293Z,11.90
2018-06-05T22:04:16.911Z,12.60
2018-06-05T22:06:46.499Z,13.90
2018-06-05T22:09:16.603Z,12.80
2018-06-05T22:11:46.149Z,12.73
2018-06-05T22:14:16.239Z,13.57
2018-06-05T22:16:45.889Z,12.50
2018-06-05T22:19:15.972Z,13.00
2018-06-05T22:21:45.650Z,13.17
2018-06-05T22:24:15.547Z,13.27
2018-06-05T22:26:45.181Z,14.50
2018-06-05T22:29:15.016Z,13.60
2018-06-05T22:31:44.708Z,15.50
2018-06-05T22:34:14.459Z,13.20
2018-06-05T22:36:44.184Z,12.10
2018-06-05T22:39:13.877Z,13.93
2018-06-05T22:41:43.545Z,12.40
2018-06-05T22:44:13.296Z,13.33
2018-06-05T22:46:43.458Z,14.10
2018-06-05T22:49:13.131Z,14.60
2018-06-05T22:51:42.957Z,15.63
2018-06-05T22:54:12.029Z,13.60
2018-06-05T22:56:41.697Z,14.97
2018-06-05T22:59:11.451Z,14.97
2018-06-05T23:01:42.145Z,13.70
2018-06-05T23:04:11.962Z,13.20
2018-06-05T23:06:41.626Z,15.07
2018-06-05T23:09:10.705Z,12.90
2018-06-05T23:11:40.382Z,13.60
2018-06-05T23:14:10.048Z,14.13
2018-06-05T23:16:39.775Z,14.13
2018-06-05T23:19:09.402Z,13.70
2018-06-05T23:21:39.176Z,14.90
2018-06-05T23:24:08.878Z,14.80
2018-06-05T23:26:37.978Z,15.27
2018-06-05T23:29:07.988Z,15.00
2018-06-05T23:31:37.048Z,14.83
2018-06-05T23:34:06.712Z,13.53
2018-06-05T23:36:36.549Z,13.17
2018-06-05T23:39:08.237Z,14.07
2018-06-05T23:41:37.951Z,12.97
2018-06-05T23:44:07.044Z,14.90
2018-06-05T23:46:36.757Z,15.60
2018-06-05T23:49:06.439Z,15.37
2018-06-05T23:51:36.177Z,14.20
2018-06-05T23:54:05.246Z,14.00
2018-06-05T23:56:35.109Z,15.10
2018-06-05T23:59:04.841Z,14.50
